Chicago, Illinois
Current Conditions -  °F | °C
As of 3:53 PM on Saturday 25 Oct 2014 (Local Time) from KMDW Reporting Station
Few Clouds Few Clouds  
Wind Chill: 74°   Ceiling: Unl
Heat Index: 74°   Visibility: 10mi
Dew Point: 29°   Wind: 18mph
Humidity: 19%   Direction: 290°WNW
Pressure: 29.91"   Gusts: 28mph
Location:  41.88°N, 87.63°W
Report Text: KMDW 252053Z 29016G24KT 10SM FEW250 23/M02 A2991 RMK AO2 SLP122 T02331017 56012
Loading
Personal Weather Stations






























Interactive Weather Map
Tropical Storm Tracking
New forecast layout! Learn more

10-Day Weather Forecast

Advertisements
Track Severe Weather on mobile